sensor_id;sensor_type;location;lat;lon;timestamp;P1;durP1;ratioP1;P2;durP2;ratioP2
36423;SDS011;22458;45.328;9.514;2023-06-26T00:01:19;9.65;;;6.50;;
36423;SDS011;22458;45.328;9.514;2023-06-26T00:03:49;8.25;;;6.70;;
36423;SDS011;22458;45.328;9.514;2023-06-26T00:06:14;8.23;;;6.57;;
36423;SDS011;22458;45.328;9.514;2023-06-26T00:08:40;11.55;;;7.35;;
36423;SDS011;22458;45.328;9.514;2023-06-26T00:11:06;10.18;;;7.85;;
36423;SDS011;22458;45.328;9.514;2023-06-26T00:13:33;10.80;;;7.53;;
36423;SDS011;22458;45.328;9.514;2023-06-26T00:15:59;9.68;;;6.68;;
36423;SDS011;22458;45.328;9.514;2023-06-26T00:20:54;7.68;;;6.43;;
36423;SDS011;22458;45.328;9.514;2023-06-26T00:23:20;10.88;;;7.82;;
36423;SDS011;22458;45.328;9.514;2023-06-26T00:25:45;10.65;;;8.10;;
36423;SDS011;22458;45.328;9.514;2023-06-26T00:28:11;11.10;;;7.30;;
36423;SDS011;22458;45.328;9.514;2023-06-26T00:30:37;11.32;;;7.70;;
36423;SDS011;22458;45.328;9.514;2023-06-26T00:33:03;8.80;;;7.20;;
36423;SDS011;22458;45.328;9.514;2023-06-26T00:35:30;8.68;;;6.93;;
36423;SDS011;22458;45.328;9.514;2023-06-26T00:37:56;9.07;;;7.82;;
36423;SDS011;22458;45.328;9.514;2023-06-26T00:40:22;10.45;;;7.57;;
36423;SDS011;22458;45.328;9.514;2023-06-26T00:42:47;10.25;;;7.90;;
36423;SDS011;22458;45.328;9.514;2023-06-26T00:45:15;8.48;;;7.35;;
36423;SDS011;22458;45.328;9.514;2023-06-26T00:47:41;9.45;;;8.20;;
36423;SDS011;22458;45.328;9.514;2023-06-26T00:50:07;12.07;;;7.50;;
36423;SDS011;22458;45.328;9.514;2023-06-26T00:52:33;12.30;;;8.18;;
36423;SDS011;22458;45.328;9.514;2023-06-26T00:54:59;11.35;;;6.60;;
36423;SDS011;22458;45.328;9.514;2023-06-26T00:57:25;10.60;;;8.13;;
36423;SDS011;22458;45.328;9.514;2023-06-26T00:59:52;10.20;;;7.65;;
36423;SDS011;22458;45.328;9.514;2023-06-26T01:02:20;8.13;;;6.93;;
36423;SDS011;22458;45.328;9.514;2023-06-26T01:04:49;8.98;;;7.28;;
36423;SDS011;22458;45.328;9.514;2023-06-26T01:07:16;10.27;;;7.68;;
36423;SDS011;22458;45.328;9.514;2023-06-26T01:09:47;10.50;;;7.28;;
36423;SDS011;22458;45.328;9.514;2023-06-26T01:12:14;10.15;;;7.93;;
36423;SDS011;22458;45.328;9.514;2023-06-26T01:14:40;8.65;;;6.60;;
36423;SDS011;22458;45.328;9.514;2023-06-26T01:17:06;8.10;;;7.07;;
36423;SDS011;22458;45.328;9.514;2023-06-26T01:19:37;10.93;;;7.22;;
36423;SDS011;22458;45.328;9.514;2023-06-26T01:24:42;9.00;;;6.82;;
36423;SDS011;22458;45.328;9.514;2023-06-26T01:27:19;8.07;;;6.40;;
36423;SDS011;22458;45.328;9.514;2023-06-26T01:29:47;10.77;;;7.28;;
36423;SDS011;22458;45.328;9.514;2023-06-26T01:32:15;8.75;;;7.07;;
36423;SDS011;22458;45.328;9.514;2023-06-26T01:34:42;11.13;;;8.15;;
36423;SDS011;22458;45.328;9.514;2023-06-26T01:37:09;9.35;;;7.70;;
36423;SDS011;22458;45.328;9.514;2023-06-26T01:39:35;9.85;;;7.53;;
36423;SDS011;22458;45.328;9.514;2023-06-26T01:42:00;8.93;;;7.35;;
36423;SDS011;22458;45.328;9.514;2023-06-26T01:44:27;8.73;;;6.78;;
36423;SDS011;22458;45.328;9.514;2023-06-26T01:46:59;9.50;;;7.50;;
36423;SDS011;22458;45.328;9.514;2023-06-26T01:54:39;9.15;;;7.22;;
36423;SDS011;22458;45.328;9.514;2023-06-26T01:57:14;10.65;;;6.88;;
36423;SDS011;22458;45.328;9.514;2023-06-26T01:59:44;9.02;;;7.53;;
36423;SDS011;22458;45.328;9.514;2023-06-26T02:02:11;10.15;;;7.30;;
36423;SDS011;22458;45.328;9.514;2023-06-26T02:04:37;8.13;;;7.28;;
36423;SDS011;22458;45.328;9.514;2023-06-26T02:07:04;9.05;;;7.72;;
36423;SDS011;22458;45.328;9.514;2023-06-26T02:09:31;8.68;;;7.57;;
36423;SDS011;22458;45.328;9.514;2023-06-26T02:11:57;9.95;;;7.88;;
36423;SDS011;22458;45.328;9.514;2023-06-26T02:14:23;10.30;;;7.95;;
36423;SDS011;22458;45.328;9.514;2023-06-26T02:16:49;9.23;;;8.27;;
36423;SDS011;22458;45.328;9.514;2023-06-26T02:19:14;11.65;;;8.10;;
36423;SDS011;22458;45.328;9.514;2023-06-26T02:21:47;10.05;;;8.15;;
36423;SDS011;22458;45.328;9.514;2023-06-26T02:24:15;10.15;;;9.00;;
36423;SDS011;22458;45.328;9.514;2023-06-26T02:26:40;12.73;;;7.97;;
36423;SDS011;22458;45.328;9.514;2023-06-26T02:29:10;10.18;;;7.82;;
36423;SDS011;22458;45.328;9.514;2023-06-26T02:31:35;9.60;;;7.75;;
36423;SDS011;22458;45.328;9.514;2023-06-26T02:34:02;13.10;;;8.48;;
36423;SDS011;22458;45.328;9.514;2023-06-26T02:36:29;10.95;;;8.00;;
36423;SDS011;22458;45.328;9.514;2023-06-26T02:38:54;12.90;;;9.13;;
36423;SDS011;22458;45.328;9.514;2023-06-26T02:41:20;10.05;;;8.20;;
36423;SDS011;22458;45.328;9.514;2023-06-26T02:43:46;10.20;;;7.60;;
36423;SDS011;22458;45.328;9.514;2023-06-26T02:46:12;13.15;;;8.48;;
36423;SDS011;22458;45.328;9.514;2023-06-26T02:48:38;10.75;;;8.10;;
36423;SDS011;22458;45.328;9.514;2023-06-26T02:51:04;11.80;;;7.57;;
36423;SDS011;22458;45.328;9.514;2023-06-26T02:53:31;10.63;;;7.85;;
36423;SDS011;22458;45.328;9.514;2023-06-26T02:55:57;9.27;;;7.68;;
36423;SDS011;22458;45.328;9.514;2023-06-26T02:58:23;10.55;;;7.72;;
36423;SDS011;22458;45.328;9.514;2023-06-26T03:00:49;11.88;;;8.27;;
36423;SDS011;22458;45.328;9.514;2023-06-26T03:03:16;8.30;;;7.47;;
36423;SDS011;22458;45.328;9.514;2023-06-26T03:05:42;9.05;;;7.78;;
36423;SDS011;22458;45.328;9.514;2023-06-26T03:08:08;9.80;;;7.97;;
36423;SDS011;22458;45.328;9.514;2023-06-26T03:10:34;10.23;;;7.47;;
36423;SDS011;22458;45.328;9.514;2023-06-26T03:13:01;9.30;;;8.18;;
36423;SDS011;22458;45.328;9.514;2023-06-26T03:15:27;10.48;;;7.50;;
36423;SDS011;22458;45.328;9.514;2023-06-26T03:17:53;12.05;;;8.27;;
36423;SDS011;22458;45.328;9.514;2023-06-26T03:20:24;10.95;;;7.65;;
36423;SDS011;22458;45.328;9.514;2023-06-26T03:22:54;11.82;;;8.02;;
36423;SDS011;22458;45.328;9.514;2023-06-26T03:25:21;8.95;;;7.72;;
36423;SDS011;22458;45.328;9.514;2023-06-26T03:27:48;9.25;;;7.80;;
36423;SDS011;22458;45.328;9.514;2023-06-26T03:30:15;9.77;;;7.07;;
36423;SDS011;22458;45.328;9.514;2023-06-26T03:32:43;8.88;;;7.43;;
36423;SDS011;22458;45.328;9.514;2023-06-26T03:35:10;10.38;;;7.15;;
36423;SDS011;22458;45.328;9.514;2023-06-26T03:37:37;13.63;;;8.35;;
36423;SDS011;22458;45.328;9.514;2023-06-26T03:40:16;9.10;;;7.95;;
36423;SDS011;22458;45.328;9.514;2023-06-26T03:42:43;11.88;;;8.10;;
36423;SDS011;22458;45.328;9.514;2023-06-26T03:45:09;9.93;;;7.63;;
36423;SDS011;22458;45.328;9.514;2023-06-26T03:47:35;11.90;;;8.13;;
36423;SDS011;22458;45.328;9.514;2023-06-26T03:50:05;8.13;;;7.28;;
36423;SDS011;22458;45.328;9.514;2023-06-26T03:52:31;11.85;;;9.13;;
36423;SDS011;22458;45.328;9.514;2023-06-26T03:54:57;10.35;;;8.75;;
36423;SDS011;22458;45.328;9.514;2023-06-26T03:57:23;13.63;;;9.35;;
36423;SDS011;22458;45.328;9.514;2023-06-26T03:59:49;12.65;;;7.93;;
36423;SDS011;22458;45.328;9.514;2023-06-26T04:02:15;11.00;;;8.80;;
36423;SDS011;22458;45.328;9.514;2023-06-26T04:04:42;12.13;;;8.35;;
36423;SDS011;22458;45.328;9.514;2023-06-26T04:07:08;11.27;;;8.57;;
36423;SDS011;22458;45.328;9.514;2023-06-26T04:09:35;11.20;;;8.68;;
36423;SDS011;22458;45.328;9.514;2023-06-26T04:12:02;17.30;;;8.57;;
36423;SDS011;22458;45.328;9.514;2023-06-26T04:14:29;9.45;;;8.43;;
36423;SDS011;22458;45.328;9.514;2023-06-26T04:16:55;9.52;;;8.32;;
36423;SDS011;22458;45.328;9.514;2023-06-26T04:19:22;12.30;;;8.23;;
36423;SDS011;22458;45.328;9.514;2023-06-26T04:21:48;13.40;;;9.88;;
36423;SDS011;22458;45.328;9.514;2023-06-26T04:24:14;9.27;;;7.65;;
36423;SDS011;22458;45.328;9.514;2023-06-26T04:26:40;11.00;;;8.05;;
36423;SDS011;22458;45.328;9.514;2023-06-26T04:29:10;10.48;;;7.95;;
36423;SDS011;22458;45.328;9.514;2023-06-26T04:31:39;16.10;;;8.60;;
36423;SDS011;22458;45.328;9.514;2023-06-26T04:34:06;10.18;;;8.23;;
36423;SDS011;22458;45.328;9.514;2023-06-26T04:36:32;10.93;;;7.97;;
36423;SDS011;22458;45.328;9.514;2023-06-26T04:38:58;9.20;;;7.80;;
36423;SDS011;22458;45.328;9.514;2023-06-26T04:41:24;12.10;;;7.82;;
36423;SDS011;22458;45.328;9.514;2023-06-26T04:43:50;11.88;;;7.95;;
36423;SDS011;22458;45.328;9.514;2023-06-26T04:46:16;10.18;;;7.70;;
36423;SDS011;22458;45.328;9.514;2023-06-26T04:48:42;8.00;;;7.20;;
36423;SDS011;22458;45.328;9.514;2023-06-26T04:51:10;10.63;;;7.47;;
36423;SDS011;22458;45.328;9.514;2023-06-26T04:53:37;10.47;;;7.60;;
36423;SDS011;22458;45.328;9.514;2023-06-26T04:56:06;13.13;;;7.45;;
36423;SDS011;22458;45.328;9.514;2023-06-26T04:58:31;8.70;;;7.05;;
36423;SDS011;22458;45.328;9.514;2023-06-26T05:00:57;11.40;;;7.57;;
36423;SDS011;22458;45.328;9.514;2023-06-26T05:03:23;8.02;;;7.18;;
36423;SDS011;22458;45.328;9.514;2023-06-26T05:05:49;9.38;;;7.13;;
36423;SDS011;22458;45.328;9.514;2023-06-26T05:08:16;12.95;;;6.97;;
36423;SDS011;22458;45.328;9.514;2023-06-26T05:10:42;8.18;;;6.95;;
36423;SDS011;22458;45.328;9.514;2023-06-26T05:13:09;6.38;;;5.68;;
36423;SDS011;22458;45.328;9.514;2023-06-26T05:15:35;8.45;;;6.00;;
36423;SDS011;22458;45.328;9.514;2023-06-26T05:18:01;6.97;;;5.75;;
36423;SDS011;22458;45.328;9.514;2023-06-26T05:20:27;6.32;;;5.68;;
36423;SDS011;22458;45.328;9.514;2023-06-26T05:22:52;7.43;;;6.00;;
36423;SDS011;22458;45.328;9.514;2023-06-26T05:25:19;6.07;;;5.32;;
36423;SDS011;22458;45.328;9.514;2023-06-26T05:27:46;7.28;;;5.80;;
36423;SDS011;22458;45.328;9.514;2023-06-26T05:30:13;8.70;;;6.07;;
36423;SDS011;22458;45.328;9.514;2023-06-26T05:35:08;5.80;;;5.18;;
36423;SDS011;22458;45.328;9.514;2023-06-26T05:37:35;67.38;;;9.38;;
36423;SDS011;22458;45.328;9.514;2023-06-26T05:40:02;9.95;;;6.20;;
36423;SDS011;22458;45.328;9.514;2023-06-26T05:42:29;8.55;;;5.45;;
36423;SDS011;22458;45.328;9.514;2023-06-26T05:44:55;7.03;;;5.32;;
36423;SDS011;22458;45.328;9.514;2023-06-26T05:47:21;7.68;;;5.43;;
36423;SDS011;22458;45.328;9.514;2023-06-26T05:49:47;8.45;;;5.68;;
36423;SDS011;22458;45.328;9.514;2023-06-26T05:52:13;8.65;;;6.20;;
36423;SDS011;22458;45.328;9.514;2023-06-26T05:54:45;6.47;;;5.40;;
36423;SDS011;22458;45.328;9.514;2023-06-26T05:57:11;6.78;;;5.68;;
36423;SDS011;22458;45.328;9.514;2023-06-26T05:59:40;8.18;;;5.70;;
36423;SDS011;22458;45.328;9.514;2023-06-26T06:02:07;9.18;;;5.45;;
36423;SDS011;22458;45.328;9.514;2023-06-26T06:04:33;7.63;;;5.40;;
36423;SDS011;22458;45.328;9.514;2023-06-26T06:07:00;6.18;;;5.50;;
36423;SDS011;22458;45.328;9.514;2023-06-26T06:09:26;5.90;;;5.30;;
36423;SDS011;22458;45.328;9.514;2023-06-26T06:11:51;12.77;;;6.65;;
36423;SDS011;22458;45.328;9.514;2023-06-26T06:14:17;8.57;;;5.82;;
36423;SDS011;22458;45.328;9.514;2023-06-26T06:16:46;6.57;;;5.57;;
36423;SDS011;22458;45.328;9.514;2023-06-26T06:19:15;8.45;;;5.70;;
36423;SDS011;22458;45.328;9.514;2023-06-26T06:21:41;8.23;;;6.18;;
36423;SDS011;22458;45.328;9.514;2023-06-26T06:24:08;8.77;;;6.05;;
36423;SDS011;22458;45.328;9.514;2023-06-26T06:26:34;14.95;;;6.20;;
36423;SDS011;22458;45.328;9.514;2023-06-26T06:29:00;6.53;;;5.53;;
36423;SDS011;22458;45.328;9.514;2023-06-26T06:31:26;8.52;;;5.22;;
36423;SDS011;22458;45.328;9.514;2023-06-26T06:33:55;8.23;;;5.00;;
36423;SDS011;22458;45.328;9.514;2023-06-26T06:36:21;6.25;;;5.38;;
36423;SDS011;22458;45.328;9.514;2023-06-26T06:38:46;8.63;;;5.50;;
36423;SDS011;22458;45.328;9.514;2023-06-26T06:41:12;7.55;;;5.38;;
36423;SDS011;22458;45.328;9.514;2023-06-26T06:43:38;15.30;;;5.30;;
36423;SDS011;22458;45.328;9.514;2023-06-26T06:46:04;6.13;;;5.10;;
36423;SDS011;22458;45.328;9.514;2023-06-26T06:48:30;8.43;;;5.47;;
36423;SDS011;22458;45.328;9.514;2023-06-26T06:50:57;6.53;;;5.53;;
36423;SDS011;22458;45.328;9.514;2023-06-26T06:53:23;9.77;;;5.72;;
36423;SDS011;22458;45.328;9.514;2023-06-26T06:55:49;8.63;;;6.07;;
36423;SDS011;22458;45.328;9.514;2023-06-26T06:58:15;8.77;;;5.63;;
36423;SDS011;22458;45.328;9.514;2023-06-26T07:00:47;8.80;;;5.72;;
36423;SDS011;22458;45.328;9.514;2023-06-26T07:03:14;8.52;;;5.97;;
36423;SDS011;22458;45.328;9.514;2023-06-26T07:05:43;8.88;;;5.85;;
36423;SDS011;22458;45.328;9.514;2023-06-26T07:08:09;8.95;;;5.80;;
36423;SDS011;22458;45.328;9.514;2023-06-26T07:10:35;9.38;;;6.72;;
36423;SDS011;22458;45.328;9.514;2023-06-26T07:13:01;8.65;;;6.68;;
36423;SDS011;22458;45.328;9.514;2023-06-26T07:15:27;8.40;;;5.18;;
36423;SDS011;22458;45.328;9.514;2023-06-26T07:17:52;7.88;;;5.93;;
36423;SDS011;22458;45.328;9.514;2023-06-26T07:20:18;9.93;;;6.40;;
36423;SDS011;22458;45.328;9.514;2023-06-26T07:22:44;10.02;;;7.00;;
36423;SDS011;22458;45.328;9.514;2023-06-26T07:25:10;11.75;;;7.32;;
36423;SDS011;22458;45.328;9.514;2023-06-26T07:27:37;9.70;;;7.05;;
36423;SDS011;22458;45.328;9.514;2023-06-26T07:30:03;8.80;;;6.85;;
36423;SDS011;22458;45.328;9.514;2023-06-26T07:32:29;13.55;;;7.53;;
36423;SDS011;22458;45.328;9.514;2023-06-26T07:34:55;8.75;;;6.60;;
36423;SDS011;22458;45.328;9.514;2023-06-26T07:37:21;10.10;;;7.43;;
36423;SDS011;22458;45.328;9.514;2023-06-26T07:39:47;11.80;;;6.97;;
36423;SDS011;22458;45.328;9.514;2023-06-26T07:42:14;10.68;;;7.07;;
36423;SDS011;22458;45.328;9.514;2023-06-26T07:44:41;9.23;;;7.20;;
36423;SDS011;22458;45.328;9.514;2023-06-26T07:47:07;9.05;;;6.95;;
36423;SDS011;22458;45.328;9.514;2023-06-26T07:49:33;9.88;;;7.38;;
36423;SDS011;22458;45.328;9.514;2023-06-26T07:51:59;7.75;;;6.88;;
36423;SDS011;22458;45.328;9.514;2023-06-26T07:54:24;11.20;;;7.00;;
36423;SDS011;22458;45.328;9.514;2023-06-26T07:59:20;8.38;;;6.57;;
36423;SDS011;22458;45.328;9.514;2023-06-26T08:01:52;8.50;;;6.13;;
36423;SDS011;22458;45.328;9.514;2023-06-26T08:04:19;9.18;;;7.25;;
36423;SDS011;22458;45.328;9.514;2023-06-26T08:06:49;8.10;;;6.85;;
36423;SDS011;22458;45.328;9.514;2023-06-26T08:09:18;10.00;;;6.55;;
36423;SDS011;22458;45.328;9.514;2023-06-26T08:11:44;8.30;;;7.25;;
36423;SDS011;22458;45.328;9.514;2023-06-26T08:14:14;7.93;;;6.75;;
36423;SDS011;22458;45.328;9.514;2023-06-26T08:16:41;8.60;;;6.57;;
36423;SDS011;22458;45.328;9.514;2023-06-26T08:19:08;8.25;;;6.10;;
36423;SDS011;22458;45.328;9.514;2023-06-26T08:21:34;7.22;;;5.18;;
36423;SDS011;22458;45.328;9.514;2023-06-26T08:23:59;7.88;;;5.28;;
36423;SDS011;22458;45.328;9.514;2023-06-26T08:26:25;7.88;;;6.00;;
36423;SDS011;22458;45.328;9.514;2023-06-26T08:28:51;7.10;;;5.57;;
36423;SDS011;22458;45.328;9.514;2023-06-26T08:31:17;10.57;;;5.80;;
36423;SDS011;22458;45.328;9.514;2023-06-26T08:33:43;7.75;;;5.50;;
36423;SDS011;22458;45.328;9.514;2023-06-26T08:36:08;9.02;;;6.03;;
36423;SDS011;22458;45.328;9.514;2023-06-26T08:38:34;8.35;;;4.97;;
36423;SDS011;22458;45.328;9.514;2023-06-26T08:41:00;8.05;;;5.10;;
36423;SDS011;22458;45.328;9.514;2023-06-26T08:43:26;10.15;;;5.40;;
36423;SDS011;22458;45.328;9.514;2023-06-26T08:45:53;6.72;;;4.88;;
36423;SDS011;22458;45.328;9.514;2023-06-26T08:48:20;7.43;;;5.07;;
36423;SDS011;22458;45.328;9.514;2023-06-26T08:50:48;5.60;;;4.97;;
36423;SDS011;22458;45.328;9.514;2023-06-26T08:53:23;7.78;;;5.18;;
36423;SDS011;22458;45.328;9.514;2023-06-26T08:56:12;8.35;;;5.32;;
36423;SDS011;22458;45.328;9.514;2023-06-26T08:58:42;7.18;;;4.05;;
36423;SDS011;22458;45.328;9.514;2023-06-26T09:01:08;6.35;;;3.60;;
36423;SDS011;22458;45.328;9.514;2023-06-26T09:03:35;4.93;;;4.15;;
36423;SDS011;22458;45.328;9.514;2023-06-26T09:06:00;4.70;;;4.20;;
36423;SDS011;22458;45.328;9.514;2023-06-26T09:08:28;6.15;;;3.85;;
36423;SDS011;22458;45.328;9.514;2023-06-26T09:10:53;4.80;;;3.08;;
36423;SDS011;22458;45.328;9.514;2023-06-26T09:13:19;4.35;;;2.97;;
36423;SDS011;22458;45.328;9.514;2023-06-26T09:15:45;5.03;;;3.60;;
36423;SDS011;22458;45.328;9.514;2023-06-26T09:18:11;4.22;;;3.17;;
36423;SDS011;22458;45.328;9.514;2023-06-26T09:20:38;4.88;;;2.95;;
36423;SDS011;22458;45.328;9.514;2023-06-26T09:23:04;6.55;;;3.22;;
36423;SDS011;22458;45.328;9.514;2023-06-26T09:25:30;5.43;;;2.80;;
36423;SDS011;22458;45.328;9.514;2023-06-26T09:27:56;5.65;;;2.92;;
36423;SDS011;22458;45.328;9.514;2023-06-26T09:30:22;5.07;;;3.22;;
36423;SDS011;22458;45.328;9.514;2023-06-26T09:32:48;4.82;;;3.50;;
36423;SDS011;22458;45.328;9.514;2023-06-26T09:35:15;4.35;;;3.08;;
36423;SDS011;22458;45.328;9.514;2023-06-26T09:37:42;3.53;;;3.10;;
36423;SDS011;22458;45.328;9.514;2023-06-26T09:40:08;4.60;;;2.72;;
36423;SDS011;22458;45.328;9.514;2023-06-26T09:42:36;6.03;;;3.35;;
36423;SDS011;22458;45.328;9.514;2023-06-26T09:45:02;4.35;;;3.00;;
36423;SDS011;22458;45.328;9.514;2023-06-26T09:47:30;3.42;;;2.38;;
36423;SDS011;22458;45.328;9.514;2023-06-26T09:50:05;9.43;;;3.20;;
36423;SDS011;22458;45.328;9.514;2023-06-26T09:52:45;3.78;;;3.08;;
36423;SDS011;22458;45.328;9.514;2023-06-26T09:55:23;8.40;;;3.25;;
36423;SDS011;22458;45.328;9.514;2023-06-26T09:57:50;5.57;;;2.88;;
36423;SDS011;22458;45.328;9.514;2023-06-26T10:00:17;3.22;;;2.53;;
36423;SDS011;22458;45.328;9.514;2023-06-26T10:02:43;4.15;;;2.53;;
36423;SDS011;22458;45.328;9.514;2023-06-26T10:05:09;4.25;;;2.80;;
36423;SDS011;22458;45.328;9.514;2023-06-26T10:07:35;4.53;;;2.90;;
36423;SDS011;22458;45.328;9.514;2023-06-26T10:10:03;5.65;;;2.90;;
36423;SDS011;22458;45.328;9.514;2023-06-26T10:12:32;3.17;;;2.75;;
36423;SDS011;22458;45.328;9.514;2023-06-26T10:14:59;3.53;;;2.75;;
36423;SDS011;22458;45.328;9.514;2023-06-26T10:17:30;4.65;;;2.47;;
36423;SDS011;22458;45.328;9.514;2023-06-26T10:20:03;3.35;;;2.60;;
36423;SDS011;22458;45.328;9.514;2023-06-26T10:22:33;2.92;;;2.60;;
36423;SDS011;22458;45.328;9.514;2023-06-26T10:25:14;4.30;;;2.75;;
36423;SDS011;22458;45.328;9.514;2023-06-26T10:27:45;3.53;;;2.70;;
36423;SDS011;22458;45.328;9.514;2023-06-26T10:30:17;5.65;;;2.60;;
36423;SDS011;22458;45.328;9.514;2023-06-26T10:32:47;5.88;;;2.95;;
36423;SDS011;22458;45.328;9.514;2023-06-26T10:35:14;4.43;;;2.80;;
36423;SDS011;22458;45.328;9.514;2023-06-26T10:37:49;3.45;;;2.85;;
36423;SDS011;22458;45.328;9.514;2023-06-26T10:40:23;6.40;;;2.35;;
36423;SDS011;22458;45.328;9.514;2023-06-26T10:42:51;5.53;;;3.05;;
36423;SDS011;22458;45.328;9.514;2023-06-26T10:45:32;3.28;;;2.97;;
36423;SDS011;22458;45.328;9.514;2023-06-26T10:47:59;3.70;;;2.83;;
36423;SDS011;22458;45.328;9.514;2023-06-26T10:50:26;5.97;;;2.90;;
36423;SDS011;22458;45.328;9.514;2023-06-26T10:53:09;4.18;;;2.60;;
36423;SDS011;22458;45.328;9.514;2023-06-26T10:55:37;3.50;;;2.53;;
36423;SDS011;22458;45.328;9.514;2023-06-26T11:03:37;4.03;;;2.58;;
36423;SDS011;22458;45.328;9.514;2023-06-26T11:06:19;3.78;;;2.40;;
36423;SDS011;22458;45.328;9.514;2023-06-26T11:11:13;4.38;;;2.65;;
36423;SDS011;22458;45.328;9.514;2023-06-26T11:13:39;4.43;;;3.13;;
36423;SDS011;22458;45.328;9.514;2023-06-26T11:16:06;5.35;;;2.63;;
36423;SDS011;22458;45.328;9.514;2023-06-26T11:18:32;5.55;;;2.53;;
36423;SDS011;22458;45.328;9.514;2023-06-26T11:21:05;3.80;;;2.35;;
36423;SDS011;22458;45.328;9.514;2023-06-26T11:23:36;5.18;;;2.83;;
36423;SDS011;22458;45.328;9.514;2023-06-26T11:29:03;3.42;;;2.67;;
36423;SDS011;22458;45.328;9.514;2023-06-26T11:31:35;3.80;;;2.60;;
36423;SDS011;22458;45.328;9.514;2023-06-26T11:34:12;4.68;;;2.53;;
36423;SDS011;22458;45.328;9.514;2023-06-26T11:36:39;3.72;;;2.90;;
36423;SDS011;22458;45.328;9.514;2023-06-26T11:39:07;3.97;;;2.40;;
36423;SDS011;22458;45.328;9.514;2023-06-26T11:41:37;4.60;;;2.58;;
36423;SDS011;22458;45.328;9.514;2023-06-26T11:44:05;3.42;;;2.70;;
36423;SDS011;22458;45.328;9.514;2023-06-26T11:46:34;3.53;;;2.53;;
36423;SDS011;22458;45.328;9.514;2023-06-26T11:49:02;3.58;;;1.90;;
36423;SDS011;22458;45.328;9.514;2023-06-26T11:51:32;3.63;;;2.78;;
36423;SDS011;22458;45.328;9.514;2023-06-26T11:54:00;3.63;;;2.40;;
36423;SDS011;22458;45.328;9.514;2023-06-26T11:56:30;4.78;;;2.70;;
36423;SDS011;22458;45.328;9.514;2023-06-26T12:01:34;3.22;;;2.70;;
36423;SDS011;22458;45.328;9.514;2023-06-26T12:04:08;4.22;;;2.67;;
36423;SDS011;22458;45.328;9.514;2023-06-26T12:06:35;3.85;;;2.33;;
36423;SDS011;22458;45.328;9.514;2023-06-26T12:09:04;3.45;;;2.63;;
36423;SDS011;22458;45.328;9.514;2023-06-26T12:11:32;4.88;;;2.88;;
36423;SDS011;22458;45.328;9.514;2023-06-26T12:14:03;3.72;;;2.55;;
36423;SDS011;22458;45.328;9.514;2023-06-26T12:16:33;7.10;;;3.10;;
36423;SDS011;22458;45.328;9.514;2023-06-26T12:19:01;5.07;;;2.15;;
36423;SDS011;22458;45.328;9.514;2023-06-26T12:24:03;3.50;;;2.70;;
36423;SDS011;22458;45.328;9.514;2023-06-26T12:26:31;4.18;;;2.83;;
36423;SDS011;22458;45.328;9.514;2023-06-26T12:29:07;6.38;;;2.45;;
36423;SDS011;22458;45.328;9.514;2023-06-26T12:31:39;4.80;;;2.70;;
36423;SDS011;22458;45.328;9.514;2023-06-26T12:34:15;6.03;;;2.22;;
36423;SDS011;22458;45.328;9.514;2023-06-26T12:36:43;2.78;;;2.45;;
36423;SDS011;22458;45.328;9.514;2023-06-26T12:39:11;6.32;;;2.92;;
36423;SDS011;22458;45.328;9.514;2023-06-26T12:41:44;3.30;;;2.50;;
36423;SDS011;22458;45.328;9.514;2023-06-26T12:44:16;5.18;;;2.60;;
36423;SDS011;22458;45.328;9.514;2023-06-26T12:46:47;3.40;;;2.53;;
36423;SDS011;22458;45.328;9.514;2023-06-26T12:49:14;4.60;;;2.65;;
36423;SDS011;22458;45.328;9.514;2023-06-26T12:51:40;2.92;;;2.55;;
36423;SDS011;22458;45.328;9.514;2023-06-26T12:54:07;4.13;;;2.20;;
36423;SDS011;22458;45.328;9.514;2023-06-26T12:56:34;4.10;;;2.47;;
36423;SDS011;22458;45.328;9.514;2023-06-26T12:59:00;3.53;;;2.72;;
36423;SDS011;22458;45.328;9.514;2023-06-26T13:01:26;3.30;;;2.33;;
36423;SDS011;22458;45.328;9.514;2023-06-26T13:03:54;4.22;;;2.65;;
36423;SDS011;22458;45.328;9.514;2023-06-26T13:06:20;5.25;;;2.70;;
36423;SDS011;22458;45.328;9.514;2023-06-26T13:08:46;2.90;;;2.45;;
36423;SDS011;22458;45.328;9.514;2023-06-26T13:11:11;4.25;;;2.80;;
36423;SDS011;22458;45.328;9.514;2023-06-26T13:13:53;4.38;;;2.63;;
36423;SDS011;22458;45.328;9.514;2023-06-26T13:16:19;3.40;;;2.83;;
36423;SDS011;22458;45.328;9.514;2023-06-26T13:18:45;5.40;;;2.58;;
36423;SDS011;22458;45.328;9.514;2023-06-26T13:21:11;4.50;;;2.35;;
36423;SDS011;22458;45.328;9.514;2023-06-26T13:23:37;5.30;;;3.17;;
36423;SDS011;22458;45.328;9.514;2023-06-26T13:26:06;3.47;;;2.72;;
36423;SDS011;22458;45.328;9.514;2023-06-26T13:28:32;4.93;;;3.08;;
36423;SDS011;22458;45.328;9.514;2023-06-26T13:30:58;3.67;;;2.63;;
36423;SDS011;22458;45.328;9.514;2023-06-26T13:33:23;2.90;;;2.35;;
36423;SDS011;22458;45.328;9.514;2023-06-26T13:35:52;4.68;;;2.72;;
36423;SDS011;22458;45.328;9.514;2023-06-26T13:38:21;3.95;;;2.20;;
36423;SDS011;22458;45.328;9.514;2023-06-26T13:40:54;4.90;;;2.50;;
36423;SDS011;22458;45.328;9.514;2023-06-26T13:43:28;2.95;;;2.40;;
36423;SDS011;22458;45.328;9.514;2023-06-26T13:45:54;5.80;;;2.63;;
36423;SDS011;22458;45.328;9.514;2023-06-26T13:48:21;3.15;;;2.60;;
36423;SDS011;22458;45.328;9.514;2023-06-26T13:50:49;5.03;;;2.60;;
36423;SDS011;22458;45.328;9.514;2023-06-26T13:53:15;3.00;;;2.22;;
36423;SDS011;22458;45.328;9.514;2023-06-26T13:55:41;5.43;;;2.58;;
36423;SDS011;22458;45.328;9.514;2023-06-26T13:58:08;3.47;;;2.92;;
36423;SDS011;22458;45.328;9.514;2023-06-26T14:00:34;6.05;;;2.47;;
36423;SDS011;22458;45.328;9.514;2023-06-26T14:03:04;5.25;;;3.22;;
36423;SDS011;22458;45.328;9.514;2023-06-26T14:05:34;4.22;;;3.38;;
36423;SDS011;22458;45.328;9.514;2023-06-26T14:08:02;5.20;;;3.05;;
36423;SDS011;22458;45.328;9.514;2023-06-26T14:12:55;3.72;;;2.80;;
36423;SDS011;22458;45.328;9.514;2023-06-26T14:15:21;3.42;;;2.50;;
36423;SDS011;22458;45.328;9.514;2023-06-26T14:17:47;3.15;;;2.63;;
36423;SDS011;22458;45.328;9.514;2023-06-26T14:20:13;8.15;;;3.25;;
36423;SDS011;22458;45.328;9.514;2023-06-26T14:22:39;4.25;;;2.50;;
36423;SDS011;22458;45.328;9.514;2023-06-26T14:25:09;4.75;;;2.80;;
36423;SDS011;22458;45.328;9.514;2023-06-26T14:27:35;8.85;;;2.80;;
36423;SDS011;22458;45.328;9.514;2023-06-26T14:30:02;5.25;;;2.63;;
36423;SDS011;22458;45.328;9.514;2023-06-26T14:32:29;5.07;;;2.95;;
36423;SDS011;22458;45.328;9.514;2023-06-26T14:34:55;4.15;;;2.42;;
36423;SDS011;22458;45.328;9.514;2023-06-26T14:37:22;6.28;;;2.70;;
36423;SDS011;22458;45.328;9.514;2023-06-26T14:39:49;3.05;;;2.58;;
36423;SDS011;22458;45.328;9.514;2023-06-26T14:42:15;4.05;;;2.25;;
36423;SDS011;22458;45.328;9.514;2023-06-26T14:44:41;3.47;;;2.47;;
36423;SDS011;22458;45.328;9.514;2023-06-26T14:47:06;4.25;;;2.28;;
36423;SDS011;22458;45.328;9.514;2023-06-26T14:49:32;3.38;;;2.40;;
36423;SDS011;22458;45.328;9.514;2023-06-26T14:51:58;3.35;;;2.50;;
36423;SDS011;22458;45.328;9.514;2023-06-26T14:54:24;6.05;;;2.72;;
36423;SDS011;22458;45.328;9.514;2023-06-26T14:56:51;3.55;;;2.83;;
36423;SDS011;22458;45.328;9.514;2023-06-26T14:59:19;4.78;;;2.40;;
36423;SDS011;22458;45.328;9.514;2023-06-26T15:01:44;5.00;;;2.63;;
36423;SDS011;22458;45.328;9.514;2023-06-26T15:04:10;5.70;;;2.42;;
36423;SDS011;22458;45.328;9.514;2023-06-26T15:06:36;3.50;;;2.50;;
36423;SDS011;22458;45.328;9.514;2023-06-26T15:09:02;4.90;;;2.97;;
36423;SDS011;22458;45.328;9.514;2023-06-26T15:11:28;4.32;;;2.28;;
36423;SDS011;22458;45.328;9.514;2023-06-26T15:13:55;6.43;;;2.72;;
36423;SDS011;22458;45.328;9.514;2023-06-26T15:16:21;4.18;;;2.50;;
36423;SDS011;22458;45.328;9.514;2023-06-26T15:18:47;5.35;;;3.25;;
36423;SDS011;22458;45.328;9.514;2023-06-26T15:21:13;4.43;;;2.70;;